sensor_id;sensor_type;location;lat;lon;timestamp;P1;durP1;ratioP1;P2;durP2;ratioP2
34697;SDS011;61391;50.922;6.928;2023-06-14T00:02:05;3.80;;;3.00;;
34697;SDS011;61391;50.922;6.928;2023-06-14T00:04:33;4.65;;;2.47;;
34697;SDS011;61391;50.922;6.928;2023-06-14T00:06:59;2.78;;;2.55;;
34697;SDS011;61391;50.922;6.928;2023-06-14T00:09:26;3.78;;;2.88;;
34697;SDS011;61391;50.922;6.928;2023-06-14T00:11:53;2.65;;;2.45;;
34697;SDS011;61391;50.922;6.928;2023-06-14T00:17:41;2.75;;;2.33;;
34697;SDS011;61391;50.922;6.928;2023-06-14T00:20:06;2.90;;;2.20;;
34697;SDS011;61391;50.922;6.928;2023-06-14T00:22:32;3.72;;;2.53;;
34697;SDS011;61391;50.922;6.928;2023-06-14T00:24:59;3.13;;;2.85;;
34697;SDS011;61391;50.922;6.928;2023-06-14T00:27:24;2.22;;;2.03;;
34697;SDS011;61391;50.922;6.928;2023-06-14T00:29:50;4.30;;;2.85;;
34697;SDS011;61391;50.922;6.928;2023-06-14T00:34:43;2.47;;;2.28;;
34697;SDS011;61391;50.922;6.928;2023-06-14T00:37:09;2.70;;;2.50;;
34697;SDS011;61391;50.922;6.928;2023-06-14T00:39:35;3.08;;;2.78;;
34697;SDS011;61391;50.922;6.928;2023-06-14T00:42:00;2.88;;;2.60;;
34697;SDS011;61391;50.922;6.928;2023-06-14T00:44:27;3.95;;;2.38;;
34697;SDS011;61391;50.922;6.928;2023-06-14T00:46:52;3.60;;;2.60;;
34697;SDS011;61391;50.922;6.928;2023-06-14T00:49:18;3.92;;;2.78;;
34697;SDS011;61391;50.922;6.928;2023-06-14T00:51:48;2.40;;;2.20;;
34697;SDS011;61391;50.922;6.928;2023-06-14T00:54:13;2.90;;;2.70;;
34697;SDS011;61391;50.922;6.928;2023-06-14T00:56:39;2.78;;;2.30;;
34697;SDS011;61391;50.922;6.928;2023-06-14T00:59:08;2.30;;;2.10;;
34697;SDS011;61391;50.922;6.928;2023-06-14T01:01:36;4.45;;;2.60;;
34697;SDS011;61391;50.922;6.928;2023-06-14T01:04:10;3.70;;;2.72;;
34697;SDS011;61391;50.922;6.928;2023-06-14T01:14:52;2.35;;;2.15;;
34697;SDS011;61391;50.922;6.928;2023-06-14T01:17:20;2.53;;;2.28;;
34697;SDS011;61391;50.922;6.928;2023-06-14T01:19:48;2.47;;;2.28;;
34697;SDS011;61391;50.922;6.928;2023-06-14T01:22:14;3.97;;;2.47;;
34697;SDS011;61391;50.922;6.928;2023-06-14T01:27:55;2.65;;;2.42;;
34697;SDS011;61391;50.922;6.928;2023-06-14T01:30:22;2.42;;;2.08;;
34697;SDS011;61391;50.922;6.928;2023-06-14T01:32:50;2.53;;;2.33;;
34697;SDS011;61391;50.922;6.928;2023-06-14T01:35:17;2.75;;;2.10;;
34697;SDS011;61391;50.922;6.928;2023-06-14T01:37:43;2.58;;;2.10;;
34697;SDS011;61391;50.922;6.928;2023-06-14T01:40:12;2.88;;;2.53;;
34697;SDS011;61391;50.922;6.928;2023-06-14T01:42:41;4.03;;;2.35;;
34697;SDS011;61391;50.922;6.928;2023-06-14T01:45:07;2.78;;;2.47;;
34697;SDS011;61391;50.922;6.928;2023-06-14T01:47:35;2.63;;;2.30;;
34697;SDS011;61391;50.922;6.928;2023-06-14T01:50:02;3.33;;;2.25;;
34697;SDS011;61391;50.922;6.928;2023-06-14T01:52:28;3.80;;;2.67;;
34697;SDS011;61391;50.922;6.928;2023-06-14T01:54:55;3.17;;;2.58;;
34697;SDS011;61391;50.922;6.928;2023-06-14T01:57:21;2.72;;;2.47;;
34697;SDS011;61391;50.922;6.928;2023-06-14T01:59:50;2.78;;;2.22;;
34697;SDS011;61391;50.922;6.928;2023-06-14T02:02:15;2.28;;;2.08;;
34697;SDS011;61391;50.922;6.928;2023-06-14T02:04:42;5.03;;;2.65;;
34697;SDS011;61391;50.922;6.928;2023-06-14T02:07:11;3.65;;;2.35;;
34697;SDS011;61391;50.922;6.928;2023-06-14T02:09:37;6.70;;;2.33;;
34697;SDS011;61391;50.922;6.928;2023-06-14T02:12:03;3.08;;;2.40;;
34697;SDS011;61391;50.922;6.928;2023-06-14T02:14:29;7.45;;;3.22;;
34697;SDS011;61391;50.922;6.928;2023-06-14T02:16:55;3.30;;;2.50;;
34697;SDS011;61391;50.922;6.928;2023-06-14T02:19:21;2.85;;;2.42;;
34697;SDS011;61391;50.922;6.928;2023-06-14T02:21:47;2.72;;;2.53;;
34697;SDS011;61391;50.922;6.928;2023-06-14T02:24:13;3.78;;;3.15;;
34697;SDS011;61391;50.922;6.928;2023-06-14T02:29:23;3.15;;;2.20;;
34697;SDS011;61391;50.922;6.928;2023-06-14T02:31:49;3.88;;;2.45;;
34697;SDS011;61391;50.922;6.928;2023-06-14T02:34:16;3.40;;;2.70;;
34697;SDS011;61391;50.922;6.928;2023-06-14T02:36:44;3.05;;;2.50;;
34697;SDS011;61391;50.922;6.928;2023-06-14T02:39:10;3.28;;;2.42;;
34697;SDS011;61391;50.922;6.928;2023-06-14T02:41:36;4.28;;;2.47;;
34697;SDS011;61391;50.922;6.928;2023-06-14T02:44:02;2.42;;;2.22;;
34697;SDS011;61391;50.922;6.928;2023-06-14T02:46:28;5.88;;;2.80;;
34697;SDS011;61391;50.922;6.928;2023-06-14T02:48:54;3.38;;;3.08;;
34697;SDS011;61391;50.922;6.928;2023-06-14T02:51:19;4.80;;;2.97;;
34697;SDS011;61391;50.922;6.928;2023-06-14T02:53:45;3.03;;;2.83;;
34697;SDS011;61391;50.922;6.928;2023-06-14T02:56:10;3.63;;;3.03;;
34697;SDS011;61391;50.922;6.928;2023-06-14T02:58:37;2.92;;;2.63;;
34697;SDS011;61391;50.922;6.928;2023-06-14T03:01:04;3.38;;;2.50;;
34697;SDS011;61391;50.922;6.928;2023-06-14T03:03:30;3.08;;;2.55;;
34697;SDS011;61391;50.922;6.928;2023-06-14T03:05:56;3.00;;;2.67;;
34697;SDS011;61391;50.922;6.928;2023-06-14T03:08:22;3.42;;;2.28;;
34697;SDS011;61391;50.922;6.928;2023-06-14T03:11:00;4.90;;;2.90;;
34697;SDS011;61391;50.922;6.928;2023-06-14T03:13:27;3.08;;;2.58;;
34697;SDS011;61391;50.922;6.928;2023-06-14T03:15:57;3.25;;;2.53;;
34697;SDS011;61391;50.922;6.928;2023-06-14T03:18:22;2.58;;;2.38;;
34697;SDS011;61391;50.922;6.928;2023-06-14T03:20:48;2.70;;;2.47;;
34697;SDS011;61391;50.922;6.928;2023-06-14T03:23:14;4.00;;;2.60;;
34697;SDS011;61391;50.922;6.928;2023-06-14T03:25:39;3.03;;;2.72;;
34697;SDS011;61391;50.922;6.928;2023-06-14T03:28:07;2.80;;;2.30;;
34697;SDS011;61391;50.922;6.928;2023-06-14T03:30:33;3.55;;;2.72;;
34697;SDS011;61391;50.922;6.928;2023-06-14T03:36:20;2.67;;;2.40;;
34697;SDS011;61391;50.922;6.928;2023-06-14T03:38:46;3.17;;;2.78;;
34697;SDS011;61391;50.922;6.928;2023-06-14T03:41:14;3.35;;;3.03;;
34697;SDS011;61391;50.922;6.928;2023-06-14T03:43:40;2.63;;;2.20;;
34697;SDS011;61391;50.922;6.928;2023-06-14T03:46:05;3.03;;;2.72;;
34697;SDS011;61391;50.922;6.928;2023-06-14T03:48:31;3.72;;;3.22;;
34697;SDS011;61391;50.922;6.928;2023-06-14T03:50:57;2.92;;;2.72;;
34697;SDS011;61391;50.922;6.928;2023-06-14T03:53:23;3.95;;;2.70;;
34697;SDS011;61391;50.922;6.928;2023-06-14T03:55:49;2.67;;;2.47;;
34697;SDS011;61391;50.922;6.928;2023-06-14T03:58:17;3.38;;;2.60;;
34697;SDS011;61391;50.922;6.928;2023-06-14T04:00:43;3.83;;;2.30;;
34697;SDS011;61391;50.922;6.928;2023-06-14T04:03:10;3.45;;;2.78;;
34697;SDS011;61391;50.922;6.928;2023-06-14T04:05:38;2.90;;;2.60;;
34697;SDS011;61391;50.922;6.928;2023-06-14T04:08:08;4.18;;;2.28;;
34697;SDS011;61391;50.922;6.928;2023-06-14T04:10:36;3.40;;;2.58;;
34697;SDS011;61391;50.922;6.928;2023-06-14T04:13:03;3.38;;;2.53;;
34697;SDS011;61391;50.922;6.928;2023-06-14T04:15:29;2.65;;;2.13;;
34697;SDS011;61391;50.922;6.928;2023-06-14T04:17:55;2.53;;;2.22;;
34697;SDS011;61391;50.922;6.928;2023-06-14T04:20:22;2.72;;;2.40;;
34697;SDS011;61391;50.922;6.928;2023-06-14T04:22:49;2.97;;;2.03;;
34697;SDS011;61391;50.922;6.928;2023-06-14T04:25:15;3.28;;;2.92;;
34697;SDS011;61391;50.922;6.928;2023-06-14T04:27:42;2.95;;;2.40;;
34697;SDS011;61391;50.922;6.928;2023-06-14T04:30:08;2.47;;;2.22;;
34697;SDS011;61391;50.922;6.928;2023-06-14T04:32:34;2.45;;;2.15;;
34697;SDS011;61391;50.922;6.928;2023-06-14T04:35:03;2.95;;;2.30;;
34697;SDS011;61391;50.922;6.928;2023-06-14T04:40:52;2.33;;;2.05;;
34697;SDS011;61391;50.922;6.928;2023-06-14T04:43:18;2.63;;;2.38;;
34697;SDS011;61391;50.922;6.928;2023-06-14T04:45:49;2.17;;;1.98;;
34697;SDS011;61391;50.922;6.928;2023-06-14T04:48:17;2.78;;;2.08;;
34697;SDS011;61391;50.922;6.928;2023-06-14T04:50:57;1.98;;;1.83;;
34697;SDS011;61391;50.922;6.928;2023-06-14T04:53:23;2.35;;;2.15;;
34697;SDS011;61391;50.922;6.928;2023-06-14T04:55:50;3.33;;;1.92;;
34697;SDS011;61391;50.922;6.928;2023-06-14T04:58:16;2.78;;;2.38;;
34697;SDS011;61391;50.922;6.928;2023-06-14T05:00:42;3.53;;;1.95;;
34697;SDS011;61391;50.922;6.928;2023-06-14T05:03:08;3.83;;;2.20;;
34697;SDS011;61391;50.922;6.928;2023-06-14T05:05:35;2.33;;;2.10;;
34697;SDS011;61391;50.922;6.928;2023-06-14T05:08:01;2.00;;;1.70;;
34697;SDS011;61391;50.922;6.928;2023-06-14T05:10:26;2.67;;;2.33;;
34697;SDS011;61391;50.922;6.928;2023-06-14T05:12:52;2.35;;;2.15;;
34697;SDS011;61391;50.922;6.928;2023-06-14T05:15:17;4.80;;;2.35;;
34697;SDS011;61391;50.922;6.928;2023-06-14T05:17:45;2.20;;;2.00;;
34697;SDS011;61391;50.922;6.928;2023-06-14T05:20:18;3.45;;;2.22;;
34697;SDS011;61391;50.922;6.928;2023-06-14T05:22:43;2.65;;;2.25;;
34697;SDS011;61391;50.922;6.928;2023-06-14T05:25:09;3.20;;;2.08;;
34697;SDS011;61391;50.922;6.928;2023-06-14T05:27:34;2.35;;;1.88;;
34697;SDS011;61391;50.922;6.928;2023-06-14T05:30:02;2.03;;;1.83;;
34697;SDS011;61391;50.922;6.928;2023-06-14T05:32:28;2.08;;;1.88;;
34697;SDS011;61391;50.922;6.928;2023-06-14T05:34:54;4.32;;;1.90;;
34697;SDS011;61391;50.922;6.928;2023-06-14T05:37:20;2.35;;;1.80;;
34697;SDS011;61391;50.922;6.928;2023-06-14T05:39:46;1.77;;;1.50;;
34697;SDS011;61391;50.922;6.928;2023-06-14T05:42:11;2.00;;;1.70;;
34697;SDS011;61391;50.922;6.928;2023-06-14T05:44:37;2.13;;;1.65;;
34697;SDS011;61391;50.922;6.928;2023-06-14T05:47:03;3.15;;;2.08;;
34697;SDS011;61391;50.922;6.928;2023-06-14T05:49:29;3.30;;;1.65;;
34697;SDS011;61391;50.922;6.928;2023-06-14T05:51:54;2.22;;;1.92;;
34697;SDS011;61391;50.922;6.928;2023-06-14T05:54:20;2.03;;;1.70;;
34697;SDS011;61391;50.922;6.928;2023-06-14T05:56:45;2.78;;;1.52;;
34697;SDS011;61391;50.922;6.928;2023-06-14T05:59:11;2.90;;;1.80;;
34697;SDS011;61391;50.922;6.928;2023-06-14T06:01:37;1.50;;;1.40;;
34697;SDS011;61391;50.922;6.928;2023-06-14T06:04:05;1.92;;;1.45;;
34697;SDS011;61391;50.922;6.928;2023-06-14T06:06:31;1.83;;;1.65;;
34697;SDS011;61391;50.922;6.928;2023-06-14T06:08:57;2.75;;;1.55;;
34697;SDS011;61391;50.922;6.928;2023-06-14T06:11:23;2.15;;;1.77;;
34697;SDS011;61391;50.922;6.928;2023-06-14T06:13:48;1.77;;;1.48;;
34697;SDS011;61391;50.922;6.928;2023-06-14T06:16:15;2.05;;;1.50;;
34697;SDS011;61391;50.922;6.928;2023-06-14T06:18:41;2.40;;;1.55;;
34697;SDS011;61391;50.922;6.928;2023-06-14T06:21:06;3.42;;;1.52;;
34697;SDS011;61391;50.922;6.928;2023-06-14T06:23:32;1.98;;;1.50;;
34697;SDS011;61391;50.922;6.928;2023-06-14T06:25:57;2.05;;;1.60;;
34697;SDS011;61391;50.922;6.928;2023-06-14T06:28:23;2.90;;;1.63;;
34697;SDS011;61391;50.922;6.928;2023-06-14T06:30:49;1.95;;;1.42;;
34697;SDS011;61391;50.922;6.928;2023-06-14T06:33:15;2.17;;;1.65;;
34697;SDS011;61391;50.922;6.928;2023-06-14T06:35:41;1.52;;;1.40;;
34697;SDS011;61391;50.922;6.928;2023-06-14T06:38:07;1.73;;;1.50;;
34697;SDS011;61391;50.922;6.928;2023-06-14T06:40:34;2.53;;;1.73;;
34697;SDS011;61391;50.922;6.928;2023-06-14T06:43:01;1.48;;;1.38;;
34697;SDS011;61391;50.922;6.928;2023-06-14T06:45:28;1.73;;;1.58;;
34697;SDS011;61391;50.922;6.928;2023-06-14T06:47:53;3.10;;;1.35;;
34697;SDS011;61391;50.922;6.928;2023-06-14T06:50:20;1.60;;;1.50;;
34697;SDS011;61391;50.922;6.928;2023-06-14T06:52:48;1.92;;;1.30;;
34697;SDS011;61391;50.922;6.928;2023-06-14T06:55:14;1.85;;;1.42;;
34697;SDS011;61391;50.922;6.928;2023-06-14T06:57:39;2.92;;;1.67;;
34697;SDS011;61391;50.922;6.928;2023-06-14T07:00:06;1.83;;;1.73;;
34697;SDS011;61391;50.922;6.928;2023-06-14T07:02:35;1.70;;;1.60;;
34697;SDS011;61391;50.922;6.928;2023-06-14T07:05:01;2.75;;;2.55;;
34697;SDS011;61391;50.922;6.928;2023-06-14T07:07:39;1.50;;;1.20;;
34697;SDS011;61391;50.922;6.928;2023-06-14T07:10:05;2.28;;;1.50;;
34697;SDS011;61391;50.922;6.928;2023-06-14T07:12:31;1.50;;;1.40;;
34697;SDS011;61391;50.922;6.928;2023-06-14T07:14:58;3.58;;;1.70;;
34697;SDS011;61391;50.922;6.928;2023-06-14T07:17:25;3.33;;;1.20;;
34697;SDS011;61391;50.922;6.928;2023-06-14T07:19:51;1.75;;;1.25;;
34697;SDS011;61391;50.922;6.928;2023-06-14T07:22:18;2.53;;;1.25;;
34697;SDS011;61391;50.922;6.928;2023-06-14T07:24:44;1.85;;;1.23;;
34697;SDS011;61391;50.922;6.928;2023-06-14T07:27:10;2.03;;;1.55;;
34697;SDS011;61391;50.922;6.928;2023-06-14T07:29:38;2.03;;;1.20;;
34697;SDS011;61391;50.922;6.928;2023-06-14T07:32:03;1.75;;;1.20;;
34697;SDS011;61391;50.922;6.928;2023-06-14T07:34:29;1.33;;;1.23;;
34697;SDS011;61391;50.922;6.928;2023-06-14T07:36:55;1.80;;;1.45;;
34697;SDS011;61391;50.922;6.928;2023-06-14T07:39:20;1.60;;;1.50;;
34697;SDS011;61391;50.922;6.928;2023-06-14T07:41:46;1.50;;;1.33;;
34697;SDS011;61391;50.922;6.928;2023-06-14T07:44:12;0.93;;;0.93;;
34697;SDS011;61391;50.922;6.928;2023-06-14T07:46:38;1.25;;;1.10;;
34697;SDS011;61391;50.922;6.928;2023-06-14T07:49:04;1.75;;;1.00;;
34697;SDS011;61391;50.922;6.928;2023-06-14T07:51:30;1.10;;;1.00;;
34697;SDS011;61391;50.922;6.928;2023-06-14T07:53:55;0.85;;;0.85;;
34697;SDS011;61391;50.922;6.928;2023-06-14T07:56:21;0.80;;;0.80;;
34697;SDS011;61391;50.922;6.928;2023-06-14T07:58:48;1.27;;;1.10;;
34697;SDS011;61391;50.922;6.928;2023-06-14T08:01:14;2.72;;;1.00;;
34697;SDS011;61391;50.922;6.928;2023-06-14T08:03:40;0.80;;;0.80;;
34697;SDS011;61391;50.922;6.928;2023-06-14T08:06:06;0.80;;;0.80;;
34697;SDS011;61391;50.922;6.928;2023-06-14T08:08:32;0.80;;;0.80;;
34697;SDS011;61391;50.922;6.928;2023-06-14T08:10:57;1.02;;;0.68;;
34697;SDS011;61391;50.922;6.928;2023-06-14T08:13:23;1.55;;;0.90;;
34697;SDS011;61391;50.922;6.928;2023-06-14T08:15:49;11.98;;;1.98;;
34697;SDS011;61391;50.922;6.928;2023-06-14T08:18:14;0.68;;;0.65;;
34697;SDS011;61391;50.922;6.928;2023-06-14T08:20:40;1.38;;;0.75;;
34697;SDS011;61391;50.922;6.928;2023-06-14T08:23:06;1.10;;;0.65;;
34697;SDS011;61391;50.922;6.928;2023-06-14T08:25:34;1.73;;;1.20;;
34697;SDS011;61391;50.922;6.928;2023-06-14T08:27:59;0.93;;;0.55;;
34697;SDS011;61391;50.922;6.928;2023-06-14T08:30:25;0.70;;;0.70;;
34697;SDS011;61391;50.922;6.928;2023-06-14T08:32:51;1.58;;;1.10;;
34697;SDS011;61391;50.922;6.928;2023-06-14T08:35:17;0.70;;;0.70;;
34697;SDS011;61391;50.922;6.928;2023-06-14T08:37:43;0.63;;;0.63;;
34697;SDS011;61391;50.922;6.928;2023-06-14T08:40:18;0.70;;;0.70;;
34697;SDS011;61391;50.922;6.928;2023-06-14T08:42:47;0.63;;;0.60;;
34697;SDS011;61391;50.922;6.928;2023-06-14T08:45:15;0.65;;;0.60;;
34697;SDS011;61391;50.922;6.928;2023-06-14T08:47:40;0.93;;;0.85;;
34697;SDS011;61391;50.922;6.928;2023-06-14T08:50:06;4.13;;;0.75;;
34697;SDS011;61391;50.922;6.928;2023-06-14T08:52:33;0.82;;;0.52;;
34697;SDS011;61391;50.922;6.928;2023-06-14T08:55:10;0.77;;;0.47;;
34697;SDS011;61391;50.922;6.928;2023-06-14T08:57:36;1.00;;;0.60;;
34697;SDS011;61391;50.922;6.928;2023-06-14T09:00:04;1.52;;;0.82;;
34697;SDS011;61391;50.922;6.928;2023-06-14T09:02:37;0.80;;;0.73;;
34697;SDS011;61391;50.922;6.928;2023-06-14T09:05:03;0.70;;;0.70;;
34697;SDS011;61391;50.922;6.928;2023-06-14T09:07:28;0.77;;;0.77;;
34697;SDS011;61391;50.922;6.928;2023-06-14T09:10:14;0.70;;;0.70;;
34697;SDS011;61391;50.922;6.928;2023-06-14T09:12:40;0.65;;;0.52;;
34697;SDS011;61391;50.922;6.928;2023-06-14T09:15:06;0.60;;;0.60;;
34697;SDS011;61391;50.922;6.928;2023-06-14T09:17:36;0.85;;;0.60;;
34697;SDS011;61391;50.922;6.928;2023-06-14T09:20:03;0.80;;;0.80;;
34697;SDS011;61391;50.922;6.928;2023-06-14T09:22:31;0.57;;;0.57;;
34697;SDS011;61391;50.922;6.928;2023-06-14T09:24:59;1.10;;;0.57;;
34697;SDS011;61391;50.922;6.928;2023-06-14T09:27:28;0.63;;;0.60;;
34697;SDS011;61391;50.922;6.928;2023-06-14T09:29:54;0.82;;;0.70;;
34697;SDS011;61391;50.922;6.928;2023-06-14T09:32:21;1.13;;;0.65;;
34697;SDS011;61391;50.922;6.928;2023-06-14T09:34:47;0.85;;;0.60;;
34697;SDS011;61391;50.922;6.928;2023-06-14T09:37:13;0.75;;;0.70;;
34697;SDS011;61391;50.922;6.928;2023-06-14T09:39:52;0.60;;;0.60;;
34697;SDS011;61391;50.922;6.928;2023-06-14T09:42:18;1.17;;;0.60;;
34697;SDS011;61391;50.922;6.928;2023-06-14T09:44:48;0.80;;;0.80;;
34697;SDS011;61391;50.922;6.928;2023-06-14T09:47:15;0.80;;;0.80;;
34697;SDS011;61391;50.922;6.928;2023-06-14T09:49:42;0.95;;;0.90;;
34697;SDS011;61391;50.922;6.928;2023-06-14T09:52:12;1.05;;;0.80;;
34697;SDS011;61391;50.922;6.928;2023-06-14T09:54:44;2.10;;;1.20;;
34697;SDS011;61391;50.922;6.928;2023-06-14T09:57:14;0.77;;;0.65;;
34697;SDS011;61391;50.922;6.928;2023-06-14T09:59:47;0.80;;;0.80;;
34697;SDS011;61391;50.922;6.928;2023-06-14T10:02:27;1.10;;;0.85;;
34697;SDS011;61391;50.922;6.928;2023-06-14T10:05:07;0.77;;;0.70;;
34697;SDS011;61391;50.922;6.928;2023-06-14T10:07:40;1.10;;;1.00;;
34697;SDS011;61391;50.922;6.928;2023-06-14T10:10:20;0.70;;;0.70;;
34697;SDS011;61391;50.922;6.928;2023-06-14T10:12:46;0.98;;;0.80;;
34697;SDS011;61391;50.922;6.928;2023-06-14T10:15:15;0.93;;;0.90;;
34697;SDS011;61391;50.922;6.928;2023-06-14T10:18:00;0.60;;;0.60;;
34697;SDS011;61391;50.922;6.928;2023-06-14T10:20:42;0.70;;;0.70;;
34697;SDS011;61391;50.922;6.928;2023-06-14T10:23:21;0.70;;;0.70;;
34697;SDS011;61391;50.922;6.928;2023-06-14T10:25:56;0.80;;;0.80;;
34697;SDS011;61391;50.922;6.928;2023-06-14T10:28:24;0.50;;;0.50;;
34697;SDS011;61391;50.922;6.928;2023-06-14T10:33:43;0.93;;;0.93;;
34697;SDS011;61391;50.922;6.928;2023-06-14T10:36:24;0.63;;;0.63;;
34697;SDS011;61391;50.922;6.928;2023-06-14T10:38:59;0.60;;;0.60;;
34697;SDS011;61391;50.922;6.928;2023-06-14T10:41:37;0.80;;;0.80;;
34697;SDS011;61391;50.922;6.928;2023-06-14T10:46:53;0.68;;;0.68;;
34697;SDS011;61391;50.922;6.928;2023-06-14T10:49:19;1.33;;;0.60;;
34697;SDS011;61391;50.922;6.928;2023-06-14T10:52:02;1.38;;;0.57;;
34697;SDS011;61391;50.922;6.928;2023-06-14T10:54:28;0.60;;;0.60;;
34697;SDS011;61391;50.922;6.928;2023-06-14T10:56:53;1.25;;;0.90;;
34697;SDS011;61391;50.922;6.928;2023-06-14T10:59:20;1.13;;;1.02;;
34697;SDS011;61391;50.922;6.928;2023-06-14T11:04:48;0.77;;;0.77;;
34697;SDS011;61391;50.922;6.928;2023-06-14T11:13:06;0.80;;;0.80;;
34697;SDS011;61391;50.922;6.928;2023-06-14T11:15:34;0.88;;;0.82;;
34697;SDS011;61391;50.922;6.928;2023-06-14T11:18:05;1.13;;;0.70;;
34697;SDS011;61391;50.922;6.928;2023-06-14T11:20:36;0.50;;;0.50;;
34697;SDS011;61391;50.922;6.928;2023-06-14T11:23:02;0.50;;;0.50;;
34697;SDS011;61391;50.922;6.928;2023-06-14T11:25:29;1.23;;;0.90;;
34697;SDS011;61391;50.922;6.928;2023-06-14T11:27:54;0.80;;;0.77;;
34697;SDS011;61391;50.922;6.928;2023-06-14T11:30:21;2.75;;;1.50;;
34697;SDS011;61391;50.922;6.928;2023-06-14T11:32:47;0.57;;;0.57;;
34697;SDS011;61391;50.922;6.928;2023-06-14T11:35:14;0.80;;;0.80;;
34697;SDS011;61391;50.922;6.928;2023-06-14T11:37:40;0.75;;;0.75;;
34697;SDS011;61391;50.922;6.928;2023-06-14T11:40:07;0.73;;;0.73;;
34697;SDS011;61391;50.922;6.928;2023-06-14T11:42:35;0.95;;;0.80;;
34697;SDS011;61391;50.922;6.928;2023-06-14T11:45:01;0.63;;;0.63;;
34697;SDS011;61391;50.922;6.928;2023-06-14T11:47:34;0.70;;;0.70;;
34697;SDS011;61391;50.922;6.928;2023-06-14T11:50:01;0.93;;;0.77;;
34697;SDS011;61391;50.922;6.928;2023-06-14T11:52:27;0.82;;;0.82;;
34697;SDS011;61391;50.922;6.928;2023-06-14T11:54:53;0.93;;;0.90;;
34697;SDS011;61391;50.922;6.928;2023-06-14T11:57:20;1.08;;;0.95;;
34697;SDS011;61391;50.922;6.928;2023-06-14T11:59:45;0.98;;;0.82;;
34697;SDS011;61391;50.922;6.928;2023-06-14T12:02:18;1.08;;;1.00;;
34697;SDS011;61391;50.922;6.928;2023-06-14T12:04:46;1.33;;;0.80;;
34697;SDS011;61391;50.922;6.928;2023-06-14T12:07:16;3.85;;;1.00;;
34697;SDS011;61391;50.922;6.928;2023-06-14T12:10:16;0.82;;;0.80;;
34697;SDS011;61391;50.922;6.928;2023-06-14T12:12:36;1.23;;;1.13;;
34697;SDS011;61391;50.922;6.928;2023-06-14T12:15:07;0.82;;;0.82;;
34697;SDS011;61391;50.922;6.928;2023-06-14T12:17:34;0.88;;;0.70;;
34697;SDS011;61391;50.922;6.928;2023-06-14T12:20:05;1.27;;;1.00;;
34697;SDS011;61391;50.922;6.928;2023-06-14T12:22:52;11.63;;;1.75;;
34697;SDS011;61391;50.922;6.928;2023-06-14T12:25:28;1.08;;;0.70;;
34697;SDS011;61391;50.922;6.928;2023-06-14T12:28:04;0.68;;;0.68;;
34697;SDS011;61391;50.922;6.928;2023-06-14T12:30:35;0.75;;;0.70;;
34697;SDS011;61391;50.922;6.928;2023-06-14T12:33:04;0.52;;;0.52;;
34697;SDS011;61391;50.922;6.928;2023-06-14T12:35:31;0.70;;;0.70;;
34697;SDS011;61391;50.922;6.928;2023-06-14T12:37:56;1.02;;;0.80;;
34697;SDS011;61391;50.922;6.928;2023-06-14T12:40:22;0.57;;;0.57;;
34697;SDS011;61391;50.922;6.928;2023-06-14T12:42:48;0.80;;;0.80;;
34697;SDS011;61391;50.922;6.928;2023-06-14T12:45:18;0.70;;;0.70;;
34697;SDS011;61391;50.922;6.928;2023-06-14T12:47:43;0.80;;;0.70;;
34697;SDS011;61391;50.922;6.928;2023-06-14T12:50:09;0.50;;;0.50;;
34697;SDS011;61391;50.922;6.928;2023-06-14T12:52:35;0.65;;;0.65;;
34697;SDS011;61391;50.922;6.928;2023-06-14T12:55:03;0.60;;;0.60;;
34697;SDS011;61391;50.922;6.928;2023-06-14T12:57:30;0.57;;;0.57;;
34697;SDS011;61391;50.922;6.928;2023-06-14T12:59:55;0.60;;;0.60;;
34697;SDS011;61391;50.922;6.928;2023-06-14T13:02:21;0.57;;;0.55;;
34697;SDS011;61391;50.922;6.928;2023-06-14T13:04:49;1.10;;;0.68;;
34697;SDS011;61391;50.922;6.928;2023-06-14T13:07:15;0.70;;;0.70;;
34697;SDS011;61391;50.922;6.928;2023-06-14T13:09:41;0.90;;;0.60;;
34697;SDS011;61391;50.922;6.928;2023-06-14T13:12:07;0.77;;;0.60;;
34697;SDS011;61391;50.922;6.928;2023-06-14T13:14:35;0.75;;;0.50;;
34697;SDS011;61391;50.922;6.928;2023-06-14T13:17:01;0.60;;;0.60;;
34697;SDS011;61391;50.922;6.928;2023-06-14T13:19:27;0.68;;;0.60;;
34697;SDS011;61391;50.922;6.928;2023-06-14T13:21:53;0.85;;;0.77;;
34697;SDS011;61391;50.922;6.928;2023-06-14T13:24:19;0.98;;;0.50;;
34697;SDS011;61391;50.922;6.928;2023-06-14T13:26:45;0.90;;;0.63;;
34697;SDS011;61391;50.922;6.928;2023-06-14T13:29:10;0.93;;;0.82;;
34697;SDS011;61391;50.922;6.928;2023-06-14T13:31:37;0.57;;;0.57;;
34697;SDS011;61391;50.922;6.928;2023-06-14T13:34:03;1.23;;;1.00;;
34697;SDS011;61391;50.922;6.928;2023-06-14T13:36:29;0.93;;;0.82;;
34697;SDS011;61391;50.922;6.928;2023-06-14T13:38:55;0.93;;;0.80;;
34697;SDS011;61391;50.922;6.928;2023-06-14T13:41:20;0.65;;;0.65;;
34697;SDS011;61391;50.922;6.928;2023-06-14T13:43:46;0.75;;;0.70;;
34697;SDS011;61391;50.922;6.928;2023-06-14T13:46:12;2.50;;;0.77;;
34697;SDS011;61391;50.922;6.928;2023-06-14T13:48:38;0.60;;;0.60;;
34697;SDS011;61391;50.922;6.928;2023-06-14T13:51:03;1.65;;;0.90;;
34697;SDS011;61391;50.922;6.928;2023-06-14T13:53:30;0.68;;;0.68;;
34697;SDS011;61391;50.922;6.928;2023-06-14T13:55:56;2.22;;;0.88;;
34697;SDS011;61391;50.922;6.928;2023-06-14T13:58:22;0.60;;;0.60;;
34697;SDS011;61391;50.922;6.928;2023-06-14T14:00:49;0.88;;;0.88;;
34697;SDS011;61391;50.922;6.928;2023-06-14T14:03:16;0.80;;;0.70;;
34697;SDS011;61391;50.922;6.928;2023-06-14T14:05:41;0.80;;;0.80;;
34697;SDS011;61391;50.922;6.928;2023-06-14T14:08:07;2.10;;;0.80;;
34697;SDS011;61391;50.922;6.928;2023-06-14T14:10:34;1.35;;;0.70;;
34697;SDS011;61391;50.922;6.928;2023-06-14T14:12:59;1.00;;;0.70;;
34697;SDS011;61391;50.922;6.928;2023-06-14T14:15:26;0.95;;;0.80;;
34697;SDS011;61391;50.922;6.928;2023-06-14T14:17:52;0.68;;;0.68;;
34697;SDS011;61391;50.922;6.928;2023-06-14T14:20:19;1.33;;;1.23;;
34697;SDS011;61391;50.922;6.928;2023-06-14T14:22:45;1.02;;;0.93;;
34697;SDS011;61391;50.922;6.928;2023-06-14T14:25:10;0.77;;;0.77;;
34697;SDS011;61391;50.922;6.928;2023-06-14T14:27:36;0.60;;;0.60;;
34697;SDS011;61391;50.922;6.928;2023-06-14T14:30:03;0.73;;;0.73;;
34697;SDS011;61391;50.922;6.928;2023-06-14T14:32:29;0.68;;;0.68;;
34697;SDS011;61391;50.922;6.928;2023-06-14T14:34:54;0.80;;;0.80;;
34697;SDS011;61391;50.922;6.928;2023-06-14T14:37:20;0.80;;;0.80;;
34697;SDS011;61391;50.922;6.928;2023-06-14T14:39:45;0.88;;;0.70;;
34697;SDS011;61391;50.922;6.928;2023-06-14T14:42:11;1.48;;;0.70;;
34697;SDS011;61391;50.922;6.928;2023-06-14T14:44:37;0.70;;;0.70;;
34697;SDS011;61391;50.922;6.928;2023-06-14T14:47:04;0.65;;;0.65;;
34697;SDS011;61391;50.922;6.928;2023-06-14T14:49:30;0.70;;;0.70;;
34697;SDS011;61391;50.922;6.928;2023-06-14T14:51:56;1.15;;;1.05;;
34697;SDS011;61391;50.922;6.928;2023-06-14T14:54:22;0.80;;;0.80;;
34697;SDS011;61391;50.922;6.928;2023-06-14T14:56:51;0.70;;;0.70;;
34697;SDS011;61391;50.922;6.928;2023-06-14T14:59:16;0.80;;;0.80;;
34697;SDS011;61391;50.922;6.928;2023-06-14T15:01:43;0.98;;;0.98;;
34697;SDS011;61391;50.922;6.928;2023-06-14T15:04:09;1.10;;;0.65;;
34697;SDS011;61391;50.922;6.928;2023-06-14T15:06:34;0.70;;;0.70;;
34697;SDS011;61391;50.922;6.928;2023-06-14T15:09:00;1.05;;;1.00;;
34697;SDS011;61391;50.922;6.928;2023-06-14T15:11:26;2.28;;;0.70;;
34697;SDS011;61391;50.922;6.928;2023-06-14T15:13:52;0.85;;;0.75;;
34697;SDS011;61391;50.922;6.928;2023-06-14T15:16:19;1.05;;;0.95;;
34697;SDS011;61391;50.922;6.928;2023-06-14T15:18:44;0.93;;;0.93;;
34697;SDS011;61391;50.922;6.928;2023-06-14T15:21:12;1.02;;;0.95;;
34697;SDS011;61391;50.922;6.928;2023-06-14T15:23:37;1.20;;;0.80;;
34697;SDS011;61391;50.922;6.928;2023-06-14T15:26:03;1.42;;;1.10;;
34697;SDS011;61391;50.922;6.928;2023-06-14T15:28:29;0.98;;;0.93;;
34697;SDS011;61391;50.922;6.928;2023-06-14T15:30:58;0.95;;;0.82;;